Time;durP1;ratioP1;P1;durP2;ratioP2;P2;SDS_P1;SDS_P2;PMS_P1;PMS_P2;Temp;Humidity;BMP_temperature;BMP_pressure;BME280_temperature;BME280_humidity;BME280_pressure;Samples;Min_cycle;Max_cycle;Signal;HPM_P1;HPM_P2
2022/01/17 00:00:27;;;;;;;0.60;0.10;;;;;;;;;;4199386;28;20052;-35
2022/01/17 00:02:29;;;;;;;0.30;0.20;;;;;;;;;;4199236;28;20052;-35
2022/01/17 00:04:29;;;;;;;0.75;0.10;;;;;;;;;;4199337;28;20091;-39
2022/01/17 00:06:30;;;;;;;0.25;0.10;;;;;;;;;;4199391;28;20197;-36
2022/01/17 00:08:31;;;;;;;0.13;0.10;;;;;;;;;;4198920;28;20051;-34
2022/01/17 00:10:32;;;;;;;0.30;0.10;;;;;;;;;;4199128;28;20488;-35
2022/01/17 00:12:37;;;;;;;0.17;0.10;;;;;;;;;;4199278;28;20094;-34
2022/01/17 00:14:42;;;;;;;0.20;0.20;;;;;;;;;;4199353;28;20102;-34
2022/01/17 00:16:52;;;;;;;0.10;0.10;;;;;;;;;;4199179;28;20048;-34
2022/01/17 00:19:17;;;;;;;0.55;0.10;;;;;;;;;;4199134;28;20044;-34
2022/01/17 00:21:15;;;;;;;0.05;0.05;;;;;;;;;;4199172;28;20048;-32
2022/01/17 00:23:17;;;;;;;0.30;0.13;;;;;;;;;;4198291;28;20118;-37
2022/01/17 00:25:17;;;;;;;0.10;0.10;;;;;;;;;;4198883;28;20444;-35
2022/01/17 00:27:19;;;;;;;0.45;0.13;;;;;;;;;;4198797;28;20049;-32
2022/01/17 00:29:19;;;;;;;0.10;0.08;;;;;;;;;;4199180;28;20118;-35
2022/01/17 00:31:20;;;;;;;0.15;0.10;;;;;;;;;;4198852;28;20089;-37
2022/01/17 00:33:21;;;;;;;0.10;0.10;;;;;;;;;;4198658;28;20140;-36
2022/01/17 00:35:24;;;;;;;0.20;0.10;;;;;;;;;;4198925;28;20056;-33
2022/01/17 00:37:25;;;;;;;0.00;0.00;;;;;;;;;;4198178;28;20057;-36
2022/01/17 00:39:26;;;;;;;0.20;0.10;;;;;;;;;;4198803;28;20091;-33
2022/01/17 00:41:27;;;;;;;0.28;0.10;;;;;;;;;;4198806;28;20078;-35
2022/01/17 00:43:29;;;;;;;0.30;0.20;;;;;;;;;;4197295;28;20148;-35
2022/01/17 00:45:31;;;;;;;0.35;0.20;;;;;;;;;;4198912;28;20044;-33
2022/01/17 00:47:32;;;;;;;0.10;0.00;;;;;;;;;;4198433;28;20048;-35
2022/01/17 00:49:33;;;;;;;0.40;0.10;;;;;;;;;;4198899;28;20052;-33
2022/01/17 00:51:34;;;;;;;0.52;0.13;;;;;;;;;;4198573;28;20041;-37
2022/01/17 00:53:37;;;;;;;0.30;0.15;;;;;;;;;;4198045;28;20087;-38
2022/01/17 00:55:38;;;;;;;0.13;0.10;;;;;;;;;;4198722;28;20048;-36
2022/01/17 00:57:40;;;;;;;0.85;0.20;;;;;;;;;;4198369;28;20056;-34
2022/01/17 00:59:41;;;;;;;0.13;0.10;;;;;;;;;;4198530;28;20454;-36
2022/01/17 01:01:42;;;;;;;0.10;0.10;;;;;;;;;;4198213;28;20135;-36
2022/01/17 01:03:43;;;;;;;0.52;0.10;;;;;;;;;;4197540;28;20091;-36
2022/01/17 01:05:44;;;;;;;0.25;0.10;;;;;;;;;;4197966;28;20048;-33
2022/01/17 01:07:45;;;;;;;0.32;0.10;;;;;;;;;;4197689;28;20095;-33
2022/01/17 01:10:01;;;;;;;0.60;0.10;;;;;;;;;;4197014;28;20095;-33
2022/01/17 01:12:02;;;;;;;0.20;0.10;;;;;;;;;;4198188;28;20499;-36
2022/01/17 01:14:04;;;;;;;0.17;0.10;;;;;;;;;;4198258;28;20048;-34
2022/01/17 01:16:21;;;;;;;0.40;0.20;;;;;;;;;;4198255;28;20060;-38
2022/01/17 01:29:46;;;;;;;0.10;0.10;;;;;;;;;;4198088;28;20382;-34
2022/01/17 01:31:55;;;;;;;0.10;0.05;;;;;;;;;;4197916;28;20060;-38
2022/01/17 01:34:03;;;;;;;0.20;0.20;;;;;;;;;;4197883;28;20374;-35
2022/01/17 01:36:19;;;;;;;0.10;0.10;;;;;;;;;;4197818;28;20078;-37
2022/01/17 01:38:20;;;;;;;0.15;0.10;;;;;;;;;;4197254;28;20056;-37
2022/01/17 01:40:21;;;;;;;0.10;0.10;;;;;;;;;;4197815;28;20117;-39
2022/01/17 01:42:23;;;;;;;0.73;0.10;;;;;;;;;;4197637;28;20052;-33
2022/01/17 01:44:25;;;;;;;0.20;0.10;;;;;;;;;;4197782;28;20488;-33
2022/01/17 01:46:26;;;;;;;0.35;0.10;;;;;;;;;;4197638;28;20327;-37
2022/01/17 01:48:28;;;;;;;0.15;0.10;;;;;;;;;;4197805;28;20052;-34
2022/01/17 01:50:29;;;;;;;0.13;0.10;;;;;;;;;;4197889;28;20045;-36
2022/01/17 01:52:30;;;;;;;0.40;0.10;;;;;;;;;;4196909;28;20048;-33
2022/01/17 01:54:31;;;;;;;0.30;0.20;;;;;;;;;;4197633;28;20182;-35
2022/01/17 01:56:34;;;;;;;0.20;0.10;;;;;;;;;;4197783;28;20048;-34
2022/01/17 01:58:35;;;;;;;0.10;0.10;;;;;;;;;;4197508;28;20052;-35
2022/01/17 02:00:37;;;;;;;0.38;0.10;;;;;;;;;;4197646;28;20104;-36
2022/01/17 02:02:38;;;;;;;0.08;0.08;;;;;;;;;;4197684;28;20102;-36
2022/01/17 02:04:39;;;;;;;0.80;0.17;;;;;;;;;;4197827;28;20094;-34
2022/01/17 02:06:40;;;;;;;0.10;0.10;;;;;;;;;;4197627;28;20450;-38
2022/01/17 02:08:41;;;;;;;0.30;0.13;;;;;;;;;;4197017;28;20079;-35
2022/01/17 02:10:42;;;;;;;0.10;0.10;;;;;;;;;;4197530;28;20049;-36
2022/01/17 02:12:43;;;;;;;0.57;0.20;;;;;;;;;;4197239;28;20052;-36
2022/01/17 02:14:44;;;;;;;0.10;0.10;;;;;;;;;;4195977;28;20044;-34
2022/01/17 02:16:47;;;;;;;0.08;0.00;;;;;;;;;;4197097;28;20524;-33
2022/01/17 02:18:49;;;;;;;0.47;0.10;;;;;;;;;;4197349;28;20056;-34
2022/01/17 02:23:10;;;;;;;0.10;0.10;;;;;;;;;;4196696;28;20374;-33
2022/01/17 02:25:12;;;;;;;0.13;0.10;;;;;;;;;;4197482;28;20044;-33
2022/01/17 02:27:13;;;;;;;0.20;0.10;;;;;;;;;;4197433;28;20356;-34
2022/01/17 02:29:14;;;;;;;1.65;0.10;;;;;;;;;;4197247;28;20114;-35
2022/01/17 02:31:16;;;;;;;0.38;0.20;;;;;;;;;;4197500;28;20166;-35
2022/01/17 02:33:18;;;;;;;0.82;0.10;;;;;;;;;;4197108;28;20374;-36
2022/01/17 02:35:21;;;;;;;0.28;0.10;;;;;;;;;;4197294;28;20049;-36
2022/01/17 02:37:22;;;;;;;0.10;0.10;;;;;;;;;;4196629;28;20102;-35
2022/01/17 02:39:22;;;;;;;0.10;0.10;;;;;;;;;;4197170;28;20052;-37
2022/01/17 02:41:28;;;;;;;0.32;0.13;;;;;;;;;;4197199;28;20098;-33
2022/01/17 02:43:31;;;;;;;0.20;0.10;;;;;;;;;;4195765;28;20048;-34
2022/01/17 02:46:24;;;;;;;0.90;0.20;;;;;;;;;;4197342;28;20056;-33
2022/01/17 02:47:58;;;;;;;0.30;0.13;;;;;;;;;;4196827;28;20045;-35
2022/01/17 02:49:59;;;;;;;0.57;0.10;;;;;;;;;;4197385;28;20048;-34
2022/01/17 02:52:00;;;;;;;0.20;0.17;;;;;;;;;;4196581;28;20049;-36
2022/01/17 02:54:01;;;;;;;0.25;0.10;;;;;;;;;;4197231;28;20091;-35
2022/01/17 02:56:03;;;;;;;0.30;0.10;;;;;;;;;;4197043;28;20113;-33
2022/01/17 02:58:04;;;;;;;0.30;0.20;;;;;;;;;;4197154;28;20052;-36
2022/01/17 03:00:09;;;;;;;0.00;0.00;;;;;;;;;;4197026;28;20079;-34
2022/01/17 03:02:10;;;;;;;0.65;0.20;;;;;;;;;;4196795;28;20052;-37
2022/01/17 03:04:11;;;;;;;1.30;0.20;;;;;;;;;;4197015;28;20277;-32
2022/01/17 03:06:12;;;;;;;0.52;0.20;;;;;;;;;;4196732;28;20182;-37
2022/01/17 03:08:15;;;;;;;0.15;0.15;;;;;;;;;;4196575;28;20045;-35
2022/01/17 03:12:21;;;;;;;0.90;0.13;;;;;;;;;;4196775;28;20062;-36
2022/01/17 03:14:22;;;;;;;0.32;0.20;;;;;;;;;;4196913;28;20128;-36
2022/01/17 03:16:29;;;;;;;0.20;0.10;;;;;;;;;;4195603;28;20136;-35
2022/01/17 03:18:32;;;;;;;0.65;0.20;;;;;;;;;;4197360;28;20048;-32
2022/01/17 03:20:39;;;;;;;0.22;0.20;;;;;;;;;;4196883;28;20049;-34
2022/01/17 03:22:41;;;;;;;0.40;0.10;;;;;;;;;;4196364;28;20060;-34
2022/01/17 03:24:42;;;;;;;0.63;0.10;;;;;;;;;;4196727;28;20066;-38
2022/01/17 03:26:43;;;;;;;0.55;0.13;;;;;;;;;;4196858;28;20056;-32
2022/01/17 03:28:44;;;;;;;0.40;0.20;;;;;;;;;;4199496;28;20044;-35
2022/01/17 03:30:45;;;;;;;0.22;0.10;;;;;;;;;;4200238;28;20048;-36
2022/01/17 03:32:46;;;;;;;2.15;0.30;;;;;;;;;;4199892;28;20126;-38
2022/01/17 03:34:47;;;;;;;0.30;0.10;;;;;;;;;;4199905;28;20145;-39
2022/01/17 03:36:48;;;;;;;0.50;0.08;;;;;;;;;;4199211;28;20095;-35
2022/01/17 03:38:50;;;;;;;0.45;0.00;;;;;;;;;;4199621;28;20048;-34
2022/01/17 03:40:51;;;;;;;0.40;0.10;;;;;;;;;;4199681;28;20056;-38
2022/01/17 03:42:52;;;;;;;1.17;0.20;;;;;;;;;;4199680;28;20110;-33
2022/01/17 03:44:54;;;;;;;0.63;0.10;;;;;;;;;;4198424;28;20488;-32
2022/01/17 03:46:55;;;;;;;0.47;0.15;;;;;;;;;;4199263;28;20052;-38
2022/01/17 03:48:56;;;;;;;0.32;0.20;;;;;;;;;;4199457;28;20105;-32
2022/01/17 03:50:58;;;;;;;0.63;0.08;;;;;;;;;;4199596;28;20052;-33
2022/01/17 03:52:59;;;;;;;0.82;0.10;;;;;;;;;;4199232;28;20045;-34
2022/01/17 03:55:00;;;;;;;0.75;0.10;;;;;;;;;;4199742;28;20122;-36
2022/01/17 03:57:01;;;;;;;0.05;0.00;;;;;;;;;;4199628;28;20101;-34
2022/01/17 03:59:02;;;;;;;0.68;0.10;;;;;;;;;;4199598;28;20504;-32
2022/01/17 04:01:03;;;;;;;0.10;0.10;;;;;;;;;;4199486;28;20076;-33
2022/01/17 04:03:04;;;;;;;0.22;0.10;;;;;;;;;;4199388;28;20040;-34
2022/01/17 04:05:06;;;;;;;0.40;0.10;;;;;;;;;;4199264;28;20091;-36
2022/01/17 04:07:06;;;;;;;0.08;0.03;;;;;;;;;;4198742;28;20056;-38
2022/01/17 04:09:07;;;;;;;0.70;0.10;;;;;;;;;;4199277;28;20095;-37
2022/01/17 04:11:08;;;;;;;1.20;0.30;;;;;;;;;;4199468;28;20049;-35
2022/01/17 04:13:10;;;;;;;0.28;0.10;;;;;;;;;;4199068;28;20488;-39
2022/01/17 04:15:12;;;;;;;1.13;0.22;;;;;;;;;;4199159;28;20048;-37
2022/01/17 04:17:12;;;;;;;0.50;0.20;;;;;;;;;;4197595;28;20445;-36
2022/01/17 04:19:14;;;;;;;0.50;0.10;;;;;;;;;;4198210;28;20045;-35
2022/01/17 04:21:14;;;;;;;0.80;0.22;;;;;;;;;;4198517;28;20084;-35
2022/01/17 04:23:15;;;;;;;0.10;0.10;;;;;;;;;;4197677;28;20045;-34
2022/01/17 04:25:17;;;;;;;0.40;0.20;;;;;;;;;;4198516;28;20094;-32
2022/01/17 04:27:17;;;;;;;0.45;0.17;;;;;;;;;;4198476;28;20060;-38
2022/01/17 04:29:20;;;;;;;0.45;0.10;;;;;;;;;;4196747;28;20041;-37
2022/01/17 04:31:21;;;;;;;0.38;0.10;;;;;;;;;;4198852;28;20075;-36
2022/01/17 04:33:22;;;;;;;0.60;0.20;;;;;;;;;;4198294;28;20052;-35
2022/01/17 04:35:25;;;;;;;0.50;0.20;;;;;;;;;;4197964;28;20109;-33
2022/01/17 04:37:26;;;;;;;0.15;0.00;;;;;;;;;;4198084;28;20048;-35
2022/01/17 04:39:27;;;;;;;0.45;0.10;;;;;;;;;;4197795;28;20044;-35
2022/01/17 04:41:37;;;;;;;0.63;0.10;;;;;;;;;;4198470;28;20377;-33
2022/01/17 04:45:39;;;;;;;1.05;0.20;;;;;;;;;;4198364;28;20417;-33
2022/01/17 04:47:41;;;;;;;0.25;0.08;;;;;;;;;;4198418;28;20131;-37
2022/01/17 04:49:42;;;;;;;0.60;0.20;;;;;;;;;;4198633;28;20052;-38
2022/01/17 04:51:45;;;;;;;0.00;0.00;;;;;;;;;;4197373;28;20056;-40
2022/01/17 04:54:03;;;;;;;0.75;0.15;;;;;;;;;;4198702;28;20091;-32
2022/01/17 04:56:04;;;;;;;0.45;0.20;;;;;;;;;;4197219;28;20074;-36
2022/01/17 04:58:06;;;;;;;0.45;0.10;;;;;;;;;;4198305;28;20048;-34
2022/01/17 05:00:08;;;;;;;0.35;0.10;;;;;;;;;;4198405;28;20053;-36
2022/01/17 05:02:10;;;;;;;1.52;0.57;;;;;;;;;;4198280;28;20114;-33
2022/01/17 05:04:11;;;;;;;0.43;0.20;;;;;;;;;;4198450;28;20056;-35
2022/01/17 05:06:12;;;;;;;1.05;0.20;;;;;;;;;;4198285;28;20115;-34
2022/01/17 05:08:13;;;;;;;0.75;0.20;;;;;;;;;;4197626;28;20618;-37
2022/01/17 05:10:15;;;;;;;0.75;0.20;;;;;;;;;;4198542;28;20049;-37
2022/01/17 05:12:16;;;;;;;0.30;0.25;;;;;;;;;;4198116;28;20369;-34
2022/01/17 05:14:18;;;;;;;1.38;0.30;;;;;;;;;;4198474;28;20048;-32
2022/01/17 05:16:20;;;;;;;0.55;0.20;;;;;;;;;;4198312;28;20048;-33
2022/01/17 05:19:48;;;;;;;0.40;0.20;;;;;;;;;;4198078;28;20060;-36
2022/01/17 05:20:45;;;;;;;0.57;0.22;;;;;;;;;;4198109;28;20071;-33
2022/01/17 05:22:46;;;;;;;1.45;0.30;;;;;;;;;;4197503;28;20048;-34
2022/01/17 05:24:47;;;;;;;0.68;0.30;;;;;;;;;;4197794;28;20113;-34
2022/01/17 05:26:48;;;;;;;0.35;0.20;;;;;;;;;;4197871;28;20449;-34
2022/01/17 05:28:49;;;;;;;1.70;0.30;;;;;;;;;;4197876;28;20048;-38
2022/01/17 05:30:50;;;;;;;0.95;0.30;;;;;;;;;;4197619;28;20056;-33
2022/01/17 05:32:52;;;;;;;0.52;0.15;;;;;;;;;;4197221;28;20074;-35
2022/01/17 05:34:52;;;;;;;0.73;0.28;;;;;;;;;;4197773;28;20048;-32
2022/01/17 05:36:53;;;;;;;0.88;0.40;;;;;;;;;;4197390;28;20063;-33
2022/01/17 05:38:54;;;;;;;0.20;0.10;;;;;;;;;;4197454;28;20105;-32
2022/01/17 05:40:55;;;;;;;1.23;0.20;;;;;;;;;;4197008;28;20488;-36
2022/01/17 05:42:56;;;;;;;0.88;0.22;;;;;;;;;;4196059;28;20134;-32
2022/01/17 05:44:57;;;;;;;0.65;0.30;;;;;;;;;;4197669;28;20048;-32
2022/01/17 05:46:58;;;;;;;0.68;0.20;;;;;;;;;;4197005;28;20475;-32
2022/01/17 05:48:59;;;;;;;1.55;0.10;;;;;;;;;;4197608;28;20549;-37
2022/01/17 05:51:00;;;;;;;0.25;0.10;;;;;;;;;;4196290;28;20048;-34
2022/01/17 05:53:01;;;;;;;0.50;0.20;;;;;;;;;;4197222;28;20052;-36
2022/01/17 05:55:03;;;;;;;2.25;0.30;;;;;;;;;;4197603;28;20063;-37
2022/01/17 05:57:04;;;;;;;0.80;0.20;;;;;;;;;;4197395;28;20053;-34
2022/01/17 05:59:06;;;;;;;0.80;0.15;;;;;;;;;;4197438;28;20056;-34
2022/01/17 06:01:08;;;;;;;0.68;0.10;;;;;;;;;;4194348;28;20185;-32
2022/01/17 06:03:09;;;;;;;1.92;0.10;;;;;;;;;;4195561;28;20048;-39
2022/01/17 06:05:10;;;;;;;0.13;0.13;;;;;;;;;;4182193;28;20469;-36
2022/01/17 06:07:11;;;;;;;0.55;0.10;;;;;;;;;;4178303;28;20481;-36
2022/01/17 06:09:12;;;;;;;0.63;0.25;;;;;;;;;;4178844;28;20115;-38
2022/01/17 06:11:13;;;;;;;1.10;0.38;;;;;;;;;;4179139;28;20049;-33
2022/01/17 06:13:14;;;;;;;0.28;0.20;;;;;;;;;;4178506;28;20468;-34
2022/01/17 06:15:18;;;;;;;0.38;0.30;;;;;;;;;;4178970;28;20056;-35
2022/01/17 06:17:19;;;;;;;1.20;0.20;;;;;;;;;;4178776;28;20497;-32
2022/01/17 06:19:20;;;;;;;0.10;0.10;;;;;;;;;;4178919;28;20059;-38
2022/01/17 06:21:21;;;;;;;0.45;0.20;;;;;;;;;;4177384;28;20470;-36
2022/01/17 06:23:24;;;;;;;0.88;0.15;;;;;;;;;;4178111;28;20796;-35
2022/01/17 06:25:24;;;;;;;1.48;0.30;;;;;;;;;;4178720;28;20060;-36
2022/01/17 06:27:25;;;;;;;0.52;0.20;;;;;;;;;;4178973;28;20191;-36
2022/01/17 06:29:26;;;;;;;0.50;0.25;;;;;;;;;;4178742;28;20137;-38
2022/01/17 06:31:27;;;;;;;1.00;0.30;;;;;;;;;;4178653;28;20053;-36
2022/01/17 06:33:28;;;;;;;0.52;0.10;;;;;;;;;;4178619;28;20649;-35
2022/01/17 06:35:30;;;;;;;0.43;0.20;;;;;;;;;;4177391;28;20378;-35
2022/01/17 06:37:31;;;;;;;1.30;0.20;;;;;;;;;;4178066;28;20048;-38
2022/01/17 06:39:32;;;;;;;1.13;0.30;;;;;;;;;;4178413;28;20277;-35
2022/01/17 06:41:33;;;;;;;1.98;0.38;;;;;;;;;;4182391;28;20107;-37
2022/01/17 06:43:34;;;;;;;2.83;0.77;;;;;;;;;;4186028;28;20110;-36
2022/01/17 06:45:35;;;;;;;1.48;0.30;;;;;;;;;;4189140;28;20096;-33
2022/01/17 06:47:36;;;;;;;1.85;0.30;;;;;;;;;;4190588;28;20086;-34
2022/01/17 06:49:37;;;;;;;0.70;0.32;;;;;;;;;;4185186;28;20040;-34
2022/01/17 06:51:38;;;;;;;0.55;0.30;;;;;;;;;;4180981;28;20041;-39
2022/01/17 06:53:41;;;;;;;0.77;0.20;;;;;;;;;;4178023;28;20049;-40
2022/01/17 06:55:42;;;;;;;2.38;0.30;;;;;;;;;;4183093;28;20057;-38
2022/01/17 06:57:43;;;;;;;1.90;0.20;;;;;;;;;;4184690;28;20071;-37
2022/01/17 06:59:44;;;;;;;1.77;0.32;;;;;;;;;;4186447;28;20544;-35
2022/01/17 07:01:45;;;;;;;1.27;0.13;;;;;;;;;;4188618;28;20051;-39
2022/01/17 07:03:46;;;;;;;1.85;0.47;;;;;;;;;;4188743;28;20044;-33
2022/01/17 07:05:47;;;;;;;1.00;0.30;;;;;;;;;;4190286;28;20060;-36
2022/01/17 07:07:48;;;;;;;0.50;0.30;;;;;;;;;;4192218;28;20053;-38
2022/01/17 07:09:49;;;;;;;1.20;0.20;;;;;;;;;;4189563;28;20128;-34
2022/01/17 07:11:50;;;;;;;0.70;0.40;;;;;;;;;;4183211;28;20053;-36
2022/01/17 07:13:52;;;;;;;1.10;0.32;;;;;;;;;;4187172;28;20052;-34
2022/01/17 07:15:53;;;;;;;0.95;0.25;;;;;;;;;;4184396;28;20378;-36
2022/01/17 07:17:54;;;;;;;1.95;0.38;;;;;;;;;;4190843;28;20128;-35
2022/01/17 07:19:54;;;;;;;1.70;0.35;;;;;;;;;;4180184;28;20143;-39
2022/01/17 07:21:55;;;;;;;1.05;0.30;;;;;;;;;;4191717;28;20087;-37
2022/01/17 07:23:56;;;;;;;2.35;0.47;;;;;;;;;;4192895;28;20060;-37
2022/01/17 07:25:58;;;;;;;2.08;0.40;;;;;;;;;;4188039;28;20105;-38
2022/01/17 07:27:59;;;;;;;2.00;0.50;;;;;;;;;;4193221;28;20056;-35
2022/01/17 07:30:00;;;;;;;2.47;0.60;;;;;;;;;;4190681;28;20110;-36
2022/01/17 07:32:01;;;;;;;7.25;0.98;;;;;;;;;;4192986;28;20048;-35
2022/01/17 07:34:03;;;;;;;3.97;0.63;;;;;;;;;;4191576;28;20053;-37
2022/01/17 07:36:04;;;;;;;7.97;0.88;;;;;;;;;;4207712;28;20082;-36
2022/01/17 07:38:05;;;;;;;7.38;0.88;;;;;;;;;;4192970;28;20071;-34
2022/01/17 07:40:07;;;;;;;4.55;0.77;;;;;;;;;;4191472;28;20060;-39
2022/01/17 07:42:08;;;;;;;6.07;0.95;;;;;;;;;;4185375;28;20049;-36
2022/01/17 07:44:18;;;;;;;8.88;1.15;;;;;;;;;;4182717;28;20053;-40
2022/01/17 07:46:34;;;;;;;5.38;0.90;;;;;;;;;;4187508;28;20057;-38
2022/01/17 07:50:55;;;;;;;11.75;1.15;;;;;;;;;;4190744;28;20040;-37
2022/01/17 07:52:56;;;;;;;6.55;1.63;;;;;;;;;;4193709;28;20068;-34
2022/01/17 07:54:57;;;;;;;4.35;1.23;;;;;;;;;;4192487;28;20049;-36
2022/01/17 07:56:59;;;;;;;7.00;1.45;;;;;;;;;;4194542;28;20060;-36
2022/01/17 07:59:01;;;;;;;4.53;1.25;;;;;;;;;;4194114;28;20056;-35
2022/01/17 08:01:02;;;;;;;7.72;1.85;;;;;;;;;;4191404;28;20052;-33
2022/01/17 08:03:06;;;;;;;9.52;1.15;;;;;;;;;;4184856;28;20414;-37
2022/01/17 08:05:14;;;;;;;3.20;1.38;;;;;;;;;;4186181;28;20090;-38
2022/01/17 08:07:15;;;;;;;2.55;1.00;;;;;;;;;;4187376;28;20053;-40
2022/01/17 08:09:21;;;;;;;3.13;1.00;;;;;;;;;;4188315;28;20074;-37
2022/01/17 08:11:22;;;;;;;3.40;1.00;;;;;;;;;;4189840;28;20044;-40
2022/01/17 08:13:23;;;;;;;4.00;1.13;;;;;;;;;;4193171;28;20546;-36
2022/01/17 08:15:25;;;;;;;4.90;1.13;;;;;;;;;;4184108;28;20048;-37
2022/01/17 08:17:26;;;;;;;6.15;1.30;;;;;;;;;;4189889;28;20048;-36
2022/01/17 08:19:27;;;;;;;7.63;1.38;;;;;;;;;;4191152;28;20482;-38
2022/01/17 08:21:28;;;;;;;7.05;1.42;;;;;;;;;;4193859;28;20053;-35
2022/01/17 08:23:29;;;;;;;8.60;1.52;;;;;;;;;;4187495;28;20373;-36
2022/01/17 08:25:30;;;;;;;7.35;1.10;;;;;;;;;;4193222;28;20057;-34
2022/01/17 08:27:32;;;;;;;7.93;1.42;;;;;;;;;;4193312;28;20052;-37
2022/01/17 08:29:34;;;;;;;7.07;1.17;;;;;;;;;;4189000;28;20048;-33
2022/01/17 08:31:35;;;;;;;3.88;1.05;;;;;;;;;;4188704;28;20061;-39
2022/01/17 08:33:36;;;;;;;7.47;1.13;;;;;;;;;;4191831;28;20040;-37
2022/01/17 08:35:37;;;;;;;3.25;0.80;;;;;;;;;;4192300;28;20522;-36
2022/01/17 08:37:38;;;;;;;8.88;1.42;;;;;;;;;;4193685;28;20107;-36
2022/01/17 08:39:39;;;;;;;4.18;1.08;;;;;;;;;;4191953;28;20122;-34
2022/01/17 08:41:42;;;;;;;4.20;0.90;;;;;;;;;;4193151;28;20048;-36
2022/01/17 08:43:43;;;;;;;1.13;0.75;;;;;;;;;;4191306;28;20037;-38
2022/01/17 08:45:44;;;;;;;4.07;0.80;;;;;;;;;;4191625;28;20492;-38
2022/01/17 08:47:49;;;;;;;4.47;1.33;;;;;;;;;;4190763;28;20105;-38
2022/01/17 08:49:50;;;;;;;2.67;0.55;;;;;;;;;;4188662;28;20055;-35
2022/01/17 08:51:51;;;;;;;4.35;1.05;;;;;;;;;;4190085;28;20045;-36
2022/01/17 08:53:52;;;;;;;3.00;1.23;;;;;;;;;;4184803;28;20049;-37
2022/01/17 08:55:54;;;;;;;4.38;0.65;;;;;;;;;;4190423;28;20516;-33
2022/01/17 08:57:55;;;;;;;2.17;0.70;;;;;;;;;;4189059;28;20471;-35
2022/01/17 08:59:56;;;;;;;3.60;0.75;;;;;;;;;;4188742;28;20055;-36
2022/01/17 09:01:58;;;;;;;4.00;0.60;;;;;;;;;;4189210;28;20060;-38
2022/01/17 09:03:58;;;;;;;2.05;0.50;;;;;;;;;;4193953;28;20045;-36
2022/01/17 09:05:59;;;;;;;2.03;0.60;;;;;;;;;;4193797;28;20118;-38
2022/01/17 09:08:01;;;;;;;4.18;0.63;;;;;;;;;;4190927;28;20099;-35
2022/01/17 09:10:03;;;;;;;3.83;0.68;;;;;;;;;;4191009;28;20393;-33
2022/01/17 09:12:05;;;;;;;2.90;0.50;;;;;;;;;;4192090;28;20044;-34
2022/01/17 09:14:06;;;;;;;1.83;0.50;;;;;;;;;;4191500;28;20357;-34
2022/01/17 09:16:08;;;;;;;1.70;0.50;;;;;;;;;;4192830;28;20087;-37
2022/01/17 09:18:09;;;;;;;3.80;0.40;;;;;;;;;;4191712;28;20052;-41
2022/01/17 09:20:11;;;;;;;3.22;0.40;;;;;;;;;;4191037;28;20060;-37
2022/01/17 09:22:12;;;;;;;1.65;0.45;;;;;;;;;;4192925;28;20070;-34
2022/01/17 09:24:13;;;;;;;2.42;0.43;;;;;;;;;;4186767;28;20461;-34
2022/01/17 09:26:14;;;;;;;1.23;0.30;;;;;;;;;;4192871;28;20143;-35
2022/01/17 09:28:15;;;;;;;3.00;0.30;;;;;;;;;;4191427;28;20484;-34
2022/01/17 09:30:16;;;;;;;0.90;0.40;;;;;;;;;;4189538;28;20047;-36
2022/01/17 09:32:17;;;;;;;1.25;0.30;;;;;;;;;;4192694;28;20059;-38
2022/01/17 09:34:18;;;;;;;2.55;0.38;;;;;;;;;;4188633;28;20092;-38
2022/01/17 09:36:19;;;;;;;1.95;0.50;;;;;;;;;;4191552;28;20060;-35
2022/01/17 09:38:20;;;;;;;1.50;0.50;;;;;;;;;;4188395;28;20060;-36
2022/01/17 09:40:21;;;;;;;2.17;0.32;;;;;;;;;;4188870;28;20476;-33
2022/01/17 09:42:22;;;;;;;0.80;0.30;;;;;;;;;;4188628;28;20056;-36
2022/01/17 09:44:23;;;;;;;1.20;0.50;;;;;;;;;;4185998;28;20059;-40
2022/01/17 09:46:27;;;;;;;2.80;0.52;;;;;;;;;;4183891;28;20117;-37
2022/01/17 09:48:35;;;;;;;1.13;0.35;;;;;;;;;;4189053;28;20057;-34
2022/01/17 09:50:47;;;;;;;0.52;0.32;;;;;;;;;;4184403;28;20106;-38
2022/01/17 09:52:51;;;;;;;0.88;0.32;;;;;;;;;;4186685;28;20048;-37
2022/01/17 09:54:53;;;;;;;3.60;0.40;;;;;;;;;;4187318;28;20580;-37
2022/01/17 09:56:55;;;;;;;1.20;0.30;;;;;;;;;;4174238;28;20436;-36
2022/01/17 09:58:57;;;;;;;0.30;0.20;;;;;;;;;;4191470;28;20052;-39
2022/01/17 10:00:59;;;;;;;0.50;0.30;;;;;;;;;;4188039;28;20052;-38
2022/01/17 10:03:05;;;;;;;0.47;0.20;;;;;;;;;;4190579;28;20044;-37
2022/01/17 10:05:08;;;;;;;1.50;0.20;;;;;;;;;;4186299;28;20052;-33
2022/01/17 10:07:09;;;;;;;1.67;0.30;;;;;;;;;;4191972;28;20100;-38
2022/01/17 10:09:13;;;;;;;1.23;0.40;;;;;;;;;;4192976;28;20126;-32
2022/01/17 10:11:16;;;;;;;0.80;0.20;;;;;;;;;;4189855;28;20067;-34
2022/01/17 10:13:24;;;;;;;0.40;0.22;;;;;;;;;;4192960;28;20428;-38
2022/01/17 10:15:33;;;;;;;0.70;0.20;;;;;;;;;;4190939;28;20044;-37
2022/01/17 10:17:42;;;;;;;0.47;0.30;;;;;;;;;;4189033;28;20049;-37
2022/01/17 10:19:44;;;;;;;0.47;0.30;;;;;;;;;;4192822;28;20044;-37
2022/01/17 10:21:52;;;;;;;1.88;0.22;;;;;;;;;;4190392;28;20048;-36
2022/01/17 10:26:21;;;;;;;1.55;0.22;;;;;;;;;;4189980;28;20098;-37
2022/01/17 10:30:47;;;;;;;0.55;0.22;;;;;;;;;;4192993;28;20048;-34
2022/01/17 10:35:11;;;;;;;1.05;0.32;;;;;;;;;;4192512;28;20055;-44
2022/01/17 10:37:13;;;;;;;0.88;0.20;;;;;;;;;;4188718;28;20055;-38
2022/01/17 10:39:14;;;;;;;0.40;0.20;;;;;;;;;;4193261;28;20044;-36
2022/01/17 10:41:24;;;;;;;0.80;0.30;;;;;;;;;;4192538;28;20090;-33
2022/01/17 10:43:34;;;;;;;1.75;0.15;;;;;;;;;;4182422;28;20048;-38
2022/01/17 10:45:35;;;;;;;;;;;;;;;;;;4188628;28;20053;-39
2022/01/17 10:47:39;;;;;;;0.93;0.20;;;;;;;;;;4186814;28;19927;-36
2022/01/17 10:49:50;;;;;;;1.25;0.30;;;;;;;;;;4191740;28;20121;-39
2022/01/17 10:51:53;;;;;;;1.08;0.52;;;;;;;;;;4190627;28;20053;-36
2022/01/17 10:53:55;;;;;;;0.10;0.10;;;;;;;;;;4188557;28;20048;-35
2022/01/17 10:55:57;;;;;;;0.68;0.20;;;;;;;;;;4187507;28;20438;-34
2022/01/17 10:58:02;;;;;;;0.43;0.20;;;;;;;;;;4188914;28;20052;-35
2022/01/17 11:00:04;;;;;;;0.82;0.25;;;;;;;;;;4192317;28;20048;-34
2022/01/17 11:02:07;;;;;;;1.00;0.20;;;;;;;;;;4193290;28;20048;-35
2022/01/17 11:04:09;;;;;;;0.90;0.20;;;;;;;;;;4188751;28;20056;-39
2022/01/17 11:06:12;;;;;;;0.82;0.32;;;;;;;;;;4189331;28;20048;-42
2022/01/17 11:08:15;;;;;;;0.77;0.15;;;;;;;;;;4185370;28;20807;-38
2022/01/17 11:10:18;;;;;;;0.77;0.30;;;;;;;;;;4186551;28;20044;-33
2022/01/17 11:12:19;;;;;;;0.20;0.15;;;;;;;;;;4188333;28;20040;-40
2022/01/17 11:14:20;;;;;;;1.23;0.20;;;;;;;;;;4190311;28;20070;-40
2022/01/17 11:16:22;;;;;;;0.70;0.20;;;;;;;;;;4193678;28;20098;-36
2022/01/17 11:18:25;;;;;;;0.55;0.22;;;;;;;;;;4191321;28;20500;-37
2022/01/17 11:20:27;;;;;;;0.25;0.20;;;;;;;;;;4192889;28;20045;-36
2022/01/17 11:22:29;;;;;;;0.13;0.10;;;;;;;;;;4192392;28;20056;-37
2022/01/17 11:24:30;;;;;;;0.68;0.17;;;;;;;;;;4193193;28;20102;-37
2022/01/17 11:26:31;;;;;;;0.95;0.20;;;;;;;;;;4193434;28;20121;-33
2022/01/17 11:28:36;;;;;;;0.25;0.10;;;;;;;;;;4192897;28;20087;-35
2022/01/17 11:30:38;;;;;;;0.47;0.10;;;;;;;;;;4194290;28;20048;-33
2022/01/17 11:32:39;;;;;;;1.20;0.28;;;;;;;;;;4193505;28;20053;-36
2022/01/17 11:34:40;;;;;;;0.55;0.20;;;;;;;;;;4194489;28;20048;-38
2022/01/17 11:36:41;;;;;;;0.68;0.40;;;;;;;;;;4192435;28;20095;-38
2022/01/17 11:38:55;;;;;;;0.20;0.10;;;;;;;;;;4188530;28;20056;-37
2022/01/17 11:40:57;;;;;;;0.68;0.20;;;;;;;;;;4190780;28;20055;-39
2022/01/17 11:42:59;;;;;;;0.35;0.20;;;;;;;;;;4189763;28;20049;-40
2022/01/17 11:45:01;;;;;;;0.73;0.20;;;;;;;;;;4190147;28;20117;-38
2022/01/17 11:47:02;;;;;;;0.20;0.10;;;;;;;;;;4182737;28;20078;-38
2022/01/17 11:49:04;;;;;;;0.43;0.43;;;;;;;;;;4191279;28;20057;-41
2022/01/17 11:51:12;;;;;;;0.85;0.20;;;;;;;;;;4194193;28;20045;-39
2022/01/17 11:53:13;;;;;;;0.60;0.30;;;;;;;;;;4193184;28;20079;-33
2022/01/17 11:55:34;;;;;;;0.25;0.10;;;;;;;;;;4190767;28;20174;-34
2022/01/17 11:57:35;;;;;;;0.70;0.20;;;;;;;;;;4191805;28;20105;-35
2022/01/17 11:59:43;;;;;;;0.98;0.50;;;;;;;;;;4191932;28;20044;-34
2022/01/17 12:02:04;;;;;;;0.10;0.10;;;;;;;;;;4194115;28;20044;-33
2022/01/17 12:04:05;;;;;;;0.30;0.15;;;;;;;;;;4192570;28;20417;-34
2022/01/17 12:06:18;;;;;;;0.75;0.25;;;;;;;;;;4193333;28;20086;-38
2022/01/17 12:08:21;;;;;;;0.40;0.17;;;;;;;;;;4191811;28;20090;-35
2022/01/17 12:10:27;;;;;;;0.22;0.10;;;;;;;;;;4196136;28;20044;-37
2022/01/17 12:12:30;;;;;;;0.30;0.10;;;;;;;;;;4193397;28;20052;-32
2022/01/17 12:14:33;;;;;;;0.95;0.20;;;;;;;;;;4192517;28;20052;-36
2022/01/17 12:16:37;;;;;;;0.00;0.00;;;;;;;;;;4192493;28;20044;-34
2022/01/17 12:18:46;;;;;;;0.35;0.10;;;;;;;;;;4191774;28;20086;-32
2022/01/17 12:20:51;;;;;;;0.20;0.10;;;;;;;;;;4192293;28;20048;-35
2022/01/17 12:22:57;;;;;;;1.00;0.28;;;;;;;;;;4192541;28;20182;-36
2022/01/17 12:25:00;;;;;;;1.05;0.20;;;;;;;;;;4191165;28;20067;-35
2022/01/17 12:27:03;;;;;;;0.40;0.20;;;;;;;;;;4194165;28;20059;-35
2022/01/17 12:29:04;;;;;;;1.73;0.20;;;;;;;;;;4191085;28;20036;-33
2022/01/17 12:31:06;;;;;;;0.10;0.00;;;;;;;;;;4190699;28;20116;-39
2022/01/17 12:33:10;;;;;;;0.60;0.45;;;;;;;;;;4188972;28;20093;-32
2022/01/17 12:35:15;;;;;;;0.17;0.10;;;;;;;;;;4190274;28;20044;-33
2022/01/17 12:37:36;;;;;;;0.20;0.20;;;;;;;;;;4190576;28;20486;-31
2022/01/17 12:39:37;;;;;;;0.38;0.17;;;;;;;;;;4191426;28;20052;-33
2022/01/17 12:41:41;;;;;;;0.57;0.15;;;;;;;;;;4192850;28;20094;-32